Time;durP1;ratioP1;P1;durP2;ratioP2;P2;SDS_P1;SDS_P2;PMS_P1;PMS_P2;Temp;Humidity;BMP_temperature;BMP_pressure;BME280_temperature;BME280_humidity;BME280_pressure;Samples;Min_cycle;Max_cycle;Signal;HPM_P1;HPM_P2
2022/11/07 00:00:10;;;;;;;85.53;37.47;;;7.60;99.90;;;;;;4991048;28;20215;-66
2022/11/07 00:02:37;;;;;;;71.77;34.93;;;7.60;99.90;;;;;;4991014;28;20199;-66
2022/11/07 00:05:05;;;;;;;73.43;33.83;;;7.60;99.90;;;;;;4990870;28;20211;-66
2022/11/07 00:07:33;;;;;;;77.37;35.90;;;7.60;99.90;;;;;;4990425;28;20195;-66
2022/11/07 00:10:00;;;;;;;71.10;34.20;;;7.60;99.90;;;;;;4991613;28;20209;-67
2022/11/07 00:12:27;;;;;;;77.60;36.13;;;7.60;99.90;;;;;;4991323;28;20214;-67
2022/11/07 00:14:53;;;;;;;78.23;36.20;;;7.60;99.90;;;;;;4990587;28;20284;-66
2022/11/07 00:17:20;;;;;;;72.60;33.53;;;7.70;99.90;;;;;;4990789;28;20239;-66
2022/11/07 00:19:48;;;;;;;77.57;35.77;;;7.70;99.90;;;;;;4990863;28;20567;-67
2022/11/07 00:22:15;;;;;;;76.87;35.63;;;7.60;99.90;;;;;;4990823;28;20216;-66
2022/11/07 00:24:43;;;;;;;79.27;37.13;;;7.70;99.90;;;;;;4990922;28;20734;-68
2022/11/07 00:27:09;;;;;;;70.17;34.40;;;7.60;99.90;;;;;;4990819;28;20216;-66
2022/11/07 00:29:36;;;;;;;80.80;36.70;;;7.60;99.90;;;;;;4990482;28;20211;-68
2022/11/07 00:32:03;;;;;;;79.57;36.63;;;7.60;99.90;;;;;;4990309;28;20207;-67
2022/11/07 00:34:30;;;;;;;74.97;36.23;;;7.50;99.90;;;;;;4990277;28;20210;-68
2022/11/07 00:36:57;;;;;;;72.00;35.80;;;7.50;99.90;;;;;;4990219;28;20211;-68
2022/11/07 00:39:23;;;;;;;77.83;37.30;;;7.50;99.90;;;;;;4990133;28;20253;-68
2022/11/07 00:41:51;;;;;;;74.83;35.50;;;7.50;99.90;;;;;;4990003;28;20211;-68
2022/11/07 00:44:18;;;;;;;81.40;36.60;;;7.50;99.90;;;;;;4990048;28;20207;-68
2022/11/07 00:46:45;;;;;;;76.97;35.73;;;7.50;99.90;;;;;;4990257;28;20211;-66
2022/11/07 00:49:12;;;;;;;71.73;35.00;;;7.60;99.90;;;;;;4990043;28;20215;-67
2022/11/07 00:51:40;;;;;;;72.70;35.43;;;7.50;99.90;;;;;;4990420;28;20207;-69
2022/11/07 00:54:06;;;;;;;70.97;34.93;;;7.50;99.90;;;;;;4990463;28;20260;-67
2022/11/07 00:56:33;;;;;;;72.43;35.47;;;7.50;99.90;;;;;;4989636;28;20200;-66
2022/11/07 00:59:01;;;;;;;75.37;36.43;;;7.50;99.90;;;;;;5001419;28;20676;-69
2022/11/07 01:01:30;;;;;;;75.90;35.03;;;7.50;99.90;;;;;;5010764;28;20211;-68
2022/11/07 01:06:43;;;;;;;76.23;34.67;;;7.40;99.90;;;;;;5010277;28;20268;-68
2022/11/07 01:09:12;;;;;;;81.37;36.00;;;7.50;99.90;;;;;;5007946;28;20199;-70
2022/11/07 01:11:40;;;;;;;71.07;34.17;;;7.50;99.90;;;;;;5010536;28;20664;-68
2022/11/07 01:14:10;;;;;;;80.13;36.53;;;7.50;99.90;;;;;;5010617;28;20226;-67
2022/11/07 01:16:38;;;;;;;80.80;36.63;;;7.50;99.90;;;;;;5009892;28;20221;-67
2022/11/07 01:19:05;;;;;;;71.23;36.53;;;7.50;99.90;;;;;;5002197;28;20218;-66
2022/11/07 01:21:32;;;;;;;70.87;34.87;;;7.50;99.90;;;;;;5006849;28;20203;-69
2022/11/07 01:23:59;;;;;;;75.67;36.03;;;7.50;99.90;;;;;;5000289;28;20222;-68
2022/11/07 01:26:26;;;;;;;80.93;36.13;;;7.60;99.90;;;;;;5010014;28;20252;-67
2022/11/07 01:28:53;;;;;;;73.70;35.73;;;7.60;99.90;;;;;;5010047;28;20209;-67
2022/11/07 01:31:21;;;;;;;78.80;35.97;;;7.60;99.90;;;;;;5010428;28;20540;-67
2022/11/07 01:33:48;;;;;;;72.57;34.63;;;7.60;99.90;;;;;;5007114;28;20208;-66
2022/11/07 01:36:16;;;;;;;76.00;36.43;;;7.50;99.90;;;;;;5010150;28;20217;-71
2022/11/07 01:38:44;;;;;;;76.13;36.13;;;7.60;99.90;;;;;;5009678;28;20233;-69
2022/11/07 01:41:23;;;;;;;75.93;36.13;;;7.50;99.90;;;;;;5010153;28;20234;-65
2022/11/07 01:43:58;;;;;;;70.37;35.17;;;7.50;99.90;;;;;;5010260;28;20194;-68
2022/11/07 01:46:29;;;;;;;79.40;38.37;;;7.50;99.90;;;;;;5007322;28;20655;-67
2022/11/07 01:49:03;;;;;;;73.47;35.80;;;7.60;99.90;;;;;;5009961;28;20193;-66
2022/11/07 01:51:32;;;;;;;71.00;37.27;;;7.60;99.90;;;;;;5009848;28;20221;-67
2022/11/07 01:54:00;;;;;;;78.30;36.13;;;7.60;99.90;;;;;;5009895;28;20211;-69
2022/11/07 01:56:32;;;;;;;71.57;34.97;;;7.60;99.90;;;;;;5009693;28;20209;-67
2022/11/07 01:58:59;;;;;;;73.90;34.53;;;7.60;99.90;;;;;;5009644;28;20218;-68
2022/11/07 02:01:28;;;;;;;75.57;36.17;;;7.60;99.90;;;;;;4996785;28;20204;-68
2022/11/07 02:03:56;;;;;;;64.80;33.47;;;7.70;99.90;;;;;;4990050;28;20217;-68
2022/11/07 02:06:31;;;;;;;65.70;34.00;;;7.70;99.90;;;;;;4989971;28;20203;-67
2022/11/07 02:08:58;;;;;;;74.90;35.17;;;7.70;99.90;;;;;;4989883;28;20195;-69
2022/11/07 02:11:25;;;;;;;64.27;32.73;;;7.70;99.90;;;;;;4989717;28;20212;-69
2022/11/07 02:13:52;;;;;;;68.93;35.07;;;7.60;99.90;;;;;;4990175;28;20229;-69
2022/11/07 02:16:19;;;;;;;75.07;35.80;;;7.60;99.90;;;;;;4988564;28;20211;-67
2022/11/07 02:18:47;;;;;;;72.80;36.33;;;7.60;99.90;;;;;;4989710;28;20389;-67
2022/11/07 02:21:23;;;;;;;59.70;33.50;;;7.60;99.90;;;;;;4989820;28;20209;-68
2022/11/07 02:23:57;;;;;;;74.17;37.00;;;7.60;99.90;;;;;;4990103;28;20191;-68
2022/11/07 02:26:27;;;;;;;66.73;35.47;;;7.50;99.90;;;;;;4989798;28;20663;-68
2022/11/07 02:28:56;;;;;;;64.03;33.97;;;7.50;99.90;;;;;;4989951;28;20580;-67
2022/11/07 02:31:23;;;;;;;66.93;35.20;;;7.50;99.90;;;;;;4988566;28;20203;-65
2022/11/07 02:33:50;;;;;;;67.23;34.03;;;7.50;99.90;;;;;;4989395;28;20218;-66
2022/11/07 02:36:20;;;;;;;70.97;34.93;;;7.60;99.90;;;;;;4989663;28;20633;-66
2022/11/07 02:38:50;;;;;;;70.80;34.20;;;7.60;99.90;;;;;;4989767;28;20610;-67
2022/11/07 02:41:21;;;;;;;62.83;31.93;;;7.60;99.90;;;;;;4989744;28;20545;-66
2022/11/07 02:43:52;;;;;;;68.03;35.30;;;7.60;99.90;;;;;;4989909;28;20192;-66
2022/11/07 02:46:22;;;;;;;70.23;36.87;;;7.60;99.90;;;;;;4987655;28;20598;-67
2022/11/07 02:48:51;;;;;;;65.37;33.57;;;7.60;99.90;;;;;;4989670;28;20210;-67
2022/11/07 02:51:18;;;;;;;65.20;33.07;;;7.60;99.90;;;;;;4989108;28;20210;-68
2022/11/07 02:53:46;;;;;;;65.93;33.50;;;7.50;99.90;;;;;;4989612;28;20605;-67
2022/11/07 02:56:13;;;;;;;66.17;34.63;;;7.60;99.90;;;;;;4989131;28;20211;-67
2022/11/07 02:58:39;;;;;;;64.90;33.50;;;7.60;99.90;;;;;;4987730;28;20313;-67
2022/11/07 03:01:08;;;;;;;67.47;34.27;;;7.60;99.90;;;;;;5007486;28;20574;-67
2022/11/07 03:03:37;;;;;;;67.33;33.73;;;7.60;99.90;;;;;;5008665;28;20698;-69
2022/11/07 03:06:05;;;;;;;67.07;34.57;;;7.70;99.90;;;;;;5009001;28;20207;-66
2022/11/07 03:08:33;;;;;;;69.70;36.23;;;7.60;99.90;;;;;;5008487;28;20207;-67
2022/11/07 03:11:00;;;;;;;66.70;33.40;;;7.60;99.90;;;;;;5008766;28;20301;-67
2022/11/07 03:13:27;;;;;;;63.97;34.27;;;7.60;99.90;;;;;;5007111;28;20221;-67
2022/11/07 03:15:54;;;;;;;64.83;33.47;;;7.70;99.90;;;;;;5008805;28;20203;-66
2022/11/07 03:18:23;;;;;;;72.90;35.40;;;7.70;99.90;;;;;;5008119;28;20246;-67
2022/11/07 03:20:50;;;;;;;68.70;34.63;;;7.70;99.90;;;;;;5008825;28;20344;-66
2022/11/07 03:23:17;;;;;;;67.47;33.63;;;7.70;99.90;;;;;;4998922;28;20207;-67
2022/11/07 03:25:44;;;;;;;65.87;34.90;;;7.70;99.90;;;;;;4988900;28;20215;-67
2022/11/07 03:28:10;;;;;;;63.60;34.97;;;7.70;99.90;;;;;;4989197;28;20219;-67
2022/11/07 03:30:37;;;;;;;61.53;32.07;;;7.70;99.90;;;;;;4992436;28;20203;-68
2022/11/07 03:33:04;;;;;;;64.17;33.70;;;7.70;99.90;;;;;;4992495;28;20286;-66
2022/11/07 03:35:32;;;;;;;69.90;35.47;;;7.70;99.90;;;;;;4992034;28;20211;-67
2022/11/07 03:37:59;;;;;;;64.33;34.33;;;7.60;99.90;;;;;;4995055;28;20198;-66
2022/11/07 03:40:26;;;;;;;68.23;35.13;;;7.60;99.90;;;;;;5011293;28;20238;-69
2022/11/07 03:42:52;;;;;;;62.33;32.30;;;7.60;99.90;;;;;;5012099;28;20206;-67
2022/11/07 03:45:19;;;;;;;60.33;30.80;;;7.60;99.90;;;;;;5011629;28;20206;-67
2022/11/07 03:47:47;;;;;;;67.53;35.63;;;7.70;99.90;;;;;;5011949;28;20214;-66
2022/11/07 03:50:17;;;;;;;64.77;33.23;;;7.70;99.90;;;;;;5011196;28;20213;-66
2022/11/07 03:52:46;;;;;;;61.83;33.30;;;7.70;99.90;;;;;;4996029;28;20669;-66
2022/11/07 03:55:14;;;;;;;64.00;32.87;;;7.70;99.90;;;;;;4991839;28;20214;-67
2022/11/07 03:57:42;;;;;;;58.27;32.90;;;7.70;99.90;;;;;;4992231;28;20562;-67
2022/11/07 04:00:10;;;;;;;60.10;32.10;;;7.70;99.90;;;;;;4991413;28;20241;-67
2022/11/07 04:02:37;;;;;;;64.23;34.37;;;7.70;99.90;;;;;;4991910;28;20218;-67
2022/11/07 04:05:04;;;;;;;61.80;33.73;;;7.70;99.90;;;;;;4991801;28;20203;-67
2022/11/07 04:07:31;;;;;;;63.03;32.17;;;7.70;99.90;;;;;;4992671;28;20215;-67
2022/11/07 04:09:59;;;;;;;60.07;33.60;;;7.70;99.90;;;;;;4991919;28;20214;-67
2022/11/07 04:17:55;;;;;;;59.03;31.83;;;7.70;99.90;;;;;;4991337;28;20715;-67
2022/11/07 04:20:22;;;;;;;58.87;32.33;;;7.80;99.90;;;;;;4990942;28;20235;-67
2022/11/07 04:22:49;;;;;;;59.20;31.43;;;7.80;99.90;;;;;;4989599;28;20318;-67
2022/11/07 04:25:17;;;;;;;58.23;32.27;;;7.90;99.90;;;;;;4991418;28;20293;-66
2022/11/07 04:27:43;;;;;;;61.97;32.20;;;7.90;99.90;;;;;;4991440;28;20207;-67
2022/11/07 04:30:23;;;;;;;54.77;30.30;;;7.90;99.90;;;;;;4991068;28;20212;-67
2022/11/07 04:32:52;;;;;;;58.80;32.87;;;7.90;99.90;;;;;;4990372;28;20302;-67
2022/11/07 04:35:19;;;;;;;58.70;32.00;;;7.80;99.90;;;;;;4987781;28;20204;-68
2022/11/07 04:37:47;;;;;;;57.00;31.27;;;7.90;99.90;;;;;;4991135;28;20579;-67
2022/11/07 04:40:14;;;;;;;58.93;32.57;;;7.90;99.90;;;;;;4989701;28;20288;-66
2022/11/07 04:42:43;;;;;;;52.20;30.03;;;7.90;99.90;;;;;;4990717;28;20687;-66
2022/11/07 04:45:10;;;;;;;59.10;32.50;;;7.90;99.90;;;;;;4990833;28;20672;-65
2022/11/07 04:47:37;;;;;;;52.63;29.37;;;7.90;99.90;;;;;;4991046;28;20203;-68
2022/11/07 04:50:06;;;;;;;53.70;30.50;;;7.90;99.90;;;;;;4990660;28;20219;-67
2022/11/07 04:52:32;;;;;;;50.17;28.87;;;7.90;99.90;;;;;;5002854;28;20671;-67
2022/11/07 04:54:59;;;;;;;60.00;29.70;;;7.90;99.90;;;;;;5010810;28;20225;-66
2022/11/07 04:57:26;;;;;;;53.00;30.47;;;7.90;99.90;;;;;;5001235;28;20237;-68
2022/11/07 04:59:54;;;;;;;56.77;31.53;;;7.90;99.90;;;;;;4991137;28;20228;-67
2022/11/07 05:02:23;;;;;;;54.27;30.67;;;7.80;99.90;;;;;;4991211;28;20214;-70
2022/11/07 05:04:50;;;;;;;54.07;30.10;;;7.90;99.90;;;;;;4990147;28;20211;-69
2022/11/07 05:07:17;;;;;;;47.57;28.20;;;7.90;99.90;;;;;;4988609;28;20658;-69
2022/11/07 05:09:44;;;;;;;49.23;29.33;;;7.80;99.90;;;;;;4990941;28;20226;-67
2022/11/07 05:12:11;;;;;;;48.77;27.27;;;7.80;99.90;;;;;;4987621;28;20227;-66
2022/11/07 05:14:38;;;;;;;52.50;28.77;;;7.80;99.90;;;;;;4990514;28;20214;-66
2022/11/07 05:17:06;;;;;;;52.00;30.03;;;7.90;99.90;;;;;;4990033;28;20260;-67
2022/11/07 05:19:33;;;;;;;47.63;28.87;;;7.90;99.90;;;;;;4990883;28;20577;-66
2022/11/07 05:24:44;;;;;;;49.03;28.57;;;7.90;99.90;;;;;;4987687;28;20207;-66
2022/11/07 05:27:17;;;;;;;50.87;28.63;;;7.90;99.90;;;;;;4990506;28;20729;-65
2022/11/07 05:29:44;;;;;;;49.63;28.27;;;7.90;99.90;;;;;;4990805;28;20192;-66
2022/11/07 05:32:12;;;;;;;51.03;27.57;;;7.90;99.90;;;;;;4990630;28;20212;-66
2022/11/07 05:34:39;;;;;;;44.27;27.03;;;7.90;99.90;;;;;;4990853;28;20203;-66
2022/11/07 05:37:08;;;;;;;44.10;25.40;;;7.90;99.90;;;;;;4990193;28;20217;-65
2022/11/07 05:39:34;;;;;;;47.93;26.83;;;7.90;99.90;;;;;;4990781;28;20689;-66
2022/11/07 05:42:02;;;;;;;42.17;25.43;;;7.90;99.90;;;;;;4990346;28;20642;-65
2022/11/07 05:44:29;;;;;;;48.23;27.57;;;7.90;99.90;;;;;;4990533;28;20207;-66
2022/11/07 05:46:56;;;;;;;49.17;29.20;;;7.90;99.90;;;;;;4990423;28;20208;-68
2022/11/07 05:49:24;;;;;;;45.43;27.37;;;8.00;99.90;;;;;;4990596;28;20203;-66
2022/11/07 05:51:51;;;;;;;46.03;27.20;;;8.00;99.90;;;;;;4989175;28;20211;-66
2022/11/07 05:54:17;;;;;;;47.97;26.50;;;8.00;99.90;;;;;;4990591;28;20219;-66
2022/11/07 05:56:44;;;;;;;52.43;29.63;;;8.00;99.90;;;;;;4990449;28;20210;-66
2022/11/07 05:59:12;;;;;;;44.40;26.23;;;8.00;99.90;;;;;;4990197;28;20687;-67
2022/11/07 06:01:39;;;;;;;43.63;25.93;;;8.00;99.90;;;;;;4990456;28;20576;-68
2022/11/07 06:04:06;;;;;;;43.57;26.07;;;8.00;99.90;;;;;;4989947;28;20213;-67
2022/11/07 06:06:34;;;;;;;43.93;26.00;;;8.00;99.90;;;;;;4990574;28;20211;-65
2022/11/07 06:09:01;;;;;;;46.17;27.03;;;8.00;99.90;;;;;;4989876;28;20220;-70
2022/11/07 06:11:28;;;;;;;47.50;28.07;;;8.00;99.90;;;;;;4991063;28;20237;-65
2022/11/07 06:13:55;;;;;;;46.40;27.30;;;8.00;99.90;;;;;;4990048;28;20207;-67
2022/11/07 06:16:22;;;;;;;44.57;26.43;;;8.00;99.90;;;;;;4995818;28;20207;-67
2022/11/07 11:10:58;;;;;;;44.47;27.50;;;7.30;99.90;;;;;;5040404;28;1368592;-65
2022/11/07 11:13:27;;;;;;;45.67;26.27;;;7.30;99.90;;;;;;5068939;28;20207;-68
2022/11/07 11:15:55;;;;;;;43.03;26.47;;;7.30;99.90;;;;;;5068451;28;20304;-65
2022/11/07 11:18:23;;;;;;;38.83;24.87;;;7.30;99.90;;;;;;5068417;28;20207;-66
2022/11/07 11:20:56;;;;;;;43.13;26.07;;;7.30;99.90;;;;;;5068993;28;20205;-66
2022/11/07 11:23:25;;;;;;;41.20;25.13;;;7.40;99.90;;;;;;5068509;28;20219;-66
2022/11/07 11:26:01;;;;;;;40.03;25.50;;;7.40;99.90;;;;;;5068573;28;20295;-66
2022/11/07 11:28:32;;;;;;;40.27;26.50;;;7.40;99.90;;;;;;5067467;28;20189;-66
2022/11/07 11:31:03;;;;;;;45.03;25.20;;;7.50;99.90;;;;;;5047137;28;20186;-66
2022/11/07 11:33:36;;;;;;;42.63;24.77;;;7.50;99.90;;;;;;5048676;28;20213;-66
2022/11/07 11:36:10;;;;;;;44.47;26.00;;;7.50;99.90;;;;;;5048785;28;20194;-67
2022/11/07 11:38:38;;;;;;;43.30;25.60;;;7.60;99.90;;;;;;5049295;28;20566;-66
2022/11/07 11:41:17;;;;;;;43.07;26.60;;;7.60;99.90;;;;;;5048059;28;20209;-66
2022/11/07 11:43:48;;;;;;;40.03;24.40;;;7.60;99.90;;;;;;5048077;28;20209;-67
2022/11/07 11:46:24;;;;;;;38.43;24.07;;;7.60;99.90;;;;;;5048555;28;20194;-67
2022/11/07 11:48:54;;;;;;;39.00;25.00;;;7.60;99.90;;;;;;5048349;28;20215;-67
2022/11/07 11:51:27;;;;;;;42.53;26.07;;;7.70;99.90;;;;;;5048362;28;20205;-67
2022/11/07 11:53:54;;;;;;;42.87;25.67;;;7.70;99.90;;;;;;5048174;28;20208;-67
2022/11/07 11:56:30;;;;;;;42.83;25.10;;;7.70;99.90;;;;;;5049329;28;20687;-69
2022/11/07 11:59:19;;;;;;;40.77;24.30;;;7.70;99.90;;;;;;5067453;28;20197;-67
2022/11/07 12:01:56;;;;;;;44.37;26.07;;;7.70;99.90;;;;;;5066554;28;20208;-66
2022/11/07 12:04:40;;;;;;;42.40;25.30;;;7.70;99.90;;;;;;5058963;28;20556;-68
2022/11/07 12:07:17;;;;;;;43.70;25.30;;;7.70;99.90;;;;;;5054800;28;20185;-67
2022/11/07 12:09:47;;;;;;;39.40;24.63;;;7.70;99.90;;;;;;5050727;28;20209;-68
2022/11/07 12:12:28;;;;;;;42.50;26.03;;;7.80;99.90;;;;;;5052923;28;20348;-66
2022/11/07 12:15:16;;;;;;;39.60;24.63;;;7.80;99.90;;;;;;5052537;28;20204;-67
2022/11/07 12:17:51;;;;;;;40.37;24.77;;;7.80;99.90;;;;;;5035006;28;20550;-66
2022/11/07 12:20:24;;;;;;;40.60;24.73;;;7.80;99.90;;;;;;5037420;28;20223;-68
2022/11/07 12:23:11;;;;;;;39.87;23.53;;;7.80;99.90;;;;;;5053628;28;20574;-70
2022/11/07 12:25:43;;;;;;;41.73;24.87;;;7.80;99.90;;;;;;5054298;28;20205;-67
2022/11/07 12:28:28;;;;;;;39.70;24.07;;;7.80;99.90;;;;;;5048327;28;20681;-67
2022/11/07 12:31:08;;;;;;;38.23;22.97;;;7.80;99.90;;;;;;5052518;28;20194;-68
2022/11/07 12:33:44;;;;;;;39.53;22.73;;;7.80;99.90;;;;;;5054460;28;20643;-68
2022/11/07 12:36:17;;;;;;;39.27;23.60;;;7.90;99.90;;;;;;5052748;28;20219;-66
2022/11/07 12:38:57;;;;;;;39.47;24.43;;;7.90;99.90;;;;;;5054203;28;20197;-68
2022/11/07 12:41:35;;;;;;;39.43;24.23;;;7.90;99.90;;;;;;5045596;28;20197;-67
2022/11/07 12:44:19;;;;;;;36.97;23.17;;;7.90;99.90;;;;;;5049070;28;20724;-67
2022/11/07 12:46:50;;;;;;;42.13;24.73;;;7.90;99.90;;;;;;5043874;28;20209;-67
2022/11/07 12:49:45;;;;;;;40.00;24.07;;;7.90;99.90;;;;;;5050937;28;20198;-65
2022/11/07 12:52:25;;;;;;;42.43;23.60;;;8.00;99.90;;;;;;5050208;28;20204;-65
2022/11/07 12:54:58;;;;;;;45.70;25.13;;;8.10;99.90;;;;;;5034235;28;20269;-66
2022/11/07 12:57:28;;;;;;;40.20;23.47;;;8.10;99.90;;;;;;5042642;28;20635;-66
2022/11/07 13:00:01;;;;;;;40.57;23.43;;;8.10;99.90;;;;;;5037662;28;20220;-68
2022/11/07 13:02:41;;;;;;;44.77;23.10;;;8.10;99.90;;;;;;5054486;28;20701;-68
2022/11/07 13:05:18;;;;;;;40.17;21.50;;;8.10;99.90;;;;;;5052803;28;20243;-67
2022/11/07 13:07:51;;;;;;;42.33;22.83;;;8.10;99.90;;;;;;5047976;28;20198;-68
2022/11/07 13:10:26;;;;;;;35.93;22.43;;;8.10;99.90;;;;;;5052536;28;20244;-66
2022/11/07 13:13:01;;;;;;;36.73;21.87;;;8.10;99.90;;;;;;5053554;28;20204;-66
2022/11/07 13:15:30;;;;;;;35.53;21.00;;;8.20;99.90;;;;;;5051904;28;20211;-68
2022/11/07 13:17:56;;;;;;;39.63;22.10;;;8.30;99.90;;;;;;5053400;28;20213;-65
2022/11/07 13:20:28;;;;;;;34.37;20.73;;;8.30;99.90;;;;;;5053443;28;20284;-68
2022/11/07 13:22:57;;;;;;;35.63;20.63;;;8.30;99.90;;;;;;5053263;28;20228;-67
2022/11/07 13:25:27;;;;;;;36.90;21.13;;;8.30;99.90;;;;;;5053751;28;20209;-67
2022/11/07 13:28:03;;;;;;;30.57;19.77;;;8.40;99.90;;;;;;5055073;28;20190;-66
2022/11/07 13:30:35;;;;;;;33.40;19.73;;;8.40;99.90;;;;;;5053097;28;20209;-67
2022/11/07 13:33:02;;;;;;;34.40;19.63;;;8.40;99.90;;;;;;5053252;28;20189;-69
2022/11/07 13:35:31;;;;;;;40.10;20.17;;;8.40;99.90;;;;;;5053076;28;20552;-66
2022/11/07 13:38:01;;;;;;;36.10;20.07;;;8.40;99.90;;;;;;5052880;28;20224;-67
2022/11/07 13:40:31;;;;;;;33.83;20.33;;;8.50;99.90;;;;;;5052432;28;20415;-67
2022/11/07 13:43:01;;;;;;;39.43;20.37;;;8.50;99.90;;;;;;5050333;28;20757;-66
2022/11/07 13:45:38;;;;;;;33.83;20.03;;;8.50;99.90;;;;;;5049679;28;20194;-65
2022/11/07 13:48:15;;;;;;;35.87;20.47;;;8.50;99.90;;;;;;5053079;28;20185;-66
2022/11/07 13:50:46;;;;;;;32.40;20.07;;;8.50;99.90;;;;;;5052647;28;20285;-66
2022/11/07 13:53:16;;;;;;;29.63;19.27;;;8.50;99.90;;;;;;5051063;28;20688;-67
2022/11/07 13:55:48;;;;;;;30.03;18.63;;;8.50;99.90;;;;;;5048414;28;20213;-67
2022/11/07 13:58:17;;;;;;;33.27;19.27;;;8.50;99.90;;;;;;5032481;28;20313;-68
2022/11/07 14:00:45;;;;;;;28.23;18.03;;;8.50;99.90;;;;;;5048434;28;20574;-67
2022/11/07 14:03:24;;;;;;;28.27;16.30;;;8.50;99.90;;;;;;5032243;28;20229;-68
2022/11/07 14:05:51;;;;;;;30.30;17.73;;;8.50;99.90;;;;;;5045492;28;20598;-68
2022/11/07 14:08:21;;;;;;;30.03;18.43;;;8.40;99.90;;;;;;5047597;28;20201;-66
2022/11/07 14:10:50;;;;;;;31.13;19.70;;;8.40;99.90;;;;;;5050882;28;20248;-67
2022/11/07 14:13:22;;;;;;;35.73;20.77;;;8.40;99.90;;;;;;5048714;28;20901;-66
2022/11/07 14:15:53;;;;;;;34.73;21.87;;;8.40;99.90;;;;;;5046947;28;20202;-69
2022/11/07 14:18:22;;;;;;;37.23;24.00;;;8.40;99.90;;;;;;5052142;28;20651;-67
2022/11/07 14:20:52;;;;;;;38.40;25.17;;;8.40;99.90;;;;;;5052185;28;20681;-69
2022/11/07 14:23:21;;;;;;;37.87;24.93;;;8.40;99.90;;;;;;5051739;28;20264;-67
2022/11/07 14:25:55;;;;;;;40.50;23.03;;;8.40;99.90;;;;;;5051475;28;20205;-67
2022/11/07 14:28:22;;;;;;;41.53;21.63;;;8.30;99.90;;;;;;5051679;28;20193;-71
2022/11/07 14:30:52;;;;;;;36.77;21.80;;;8.30;99.90;;;;;;5052479;28;20205;-66
2022/11/07 19:02:06;;;;;;;37.87;23.10;;;6.90;99.90;;;;;;5091770;27;1467774;-68
2022/11/07 19:04:33;;;;;;;42.73;23.73;;;6.90;99.90;;;;;;5128641;28;20199;-68
2022/11/07 19:07:00;;;;;;;41.27;23.47;;;6.90;99.90;;;;;;5128945;28;20202;-67
2022/11/07 19:09:29;;;;;;;45.80;25.03;;;6.90;99.90;;;;;;5128209;28;20227;-68
2022/11/07 19:11:56;;;;;;;47.23;25.77;;;6.90;99.90;;;;;;5128702;28;20203;-67
2022/11/07 19:14:23;;;;;;;46.93;27.13;;;6.90;99.90;;;;;;5128471;28;20244;-67
2022/11/07 19:16:51;;;;;;;50.40;27.30;;;6.90;99.90;;;;;;5128639;28;20230;-66
2022/11/07 19:19:19;;;;;;;45.60;24.00;;;6.90;99.90;;;;;;5128978;28;20207;-68
2022/11/07 19:21:45;;;;;;;47.10;26.10;;;6.80;99.90;;;;;;5112574;28;20322;-67
2022/11/07 19:24:13;;;;;;;44.20;25.83;;;6.80;99.90;;;;;;5104331;28;20204;-68
2022/11/07 19:26:40;;;;;;;45.97;25.23;;;6.80;99.90;;;;;;5107525;28;20204;-67
2022/11/07 19:29:08;;;;;;;43.57;25.00;;;6.80;99.90;;;;;;5105464;28;20207;-68
2022/11/07 19:31:35;;;;;;;44.13;24.90;;;6.80;99.90;;;;;;5100751;28;20211;-66
2022/11/07 19:34:02;;;;;;;47.50;28.20;;;6.70;99.90;;;;;;5094617;28;20661;-66
2022/11/07 19:36:30;;;;;;;49.10;27.53;;;6.70;99.90;;;;;;5094171;28;20241;-67
2022/11/07 19:38:57;;;;;;;43.13;25.97;;;6.70;99.90;;;;;;5094736;28;20218;-66
2022/11/07 19:41:24;;;;;;;44.33;26.63;;;6.70;99.90;;;;;;5086570;28;20193;-66
2022/11/07 19:43:50;;;;;;;44.50;25.73;;;6.60;99.90;;;;;;5074446;28;20201;-67
2022/11/07 19:46:20;;;;;;;46.17;26.63;;;6.50;99.90;;;;;;5079774;28;20676;-66
2022/11/07 19:48:47;;;;;;;48.00;27.33;;;6.50;99.90;;;;;;5091799;28;20226;-65
2022/11/07 19:51:15;;;;;;;48.27;26.83;;;6.60;99.90;;;;;;5073919;28;20225;-67
2022/11/07 19:53:44;;;;;;;48.10;26.63;;;6.60;99.90;;;;;;5086713;28;20206;-68
2022/11/07 19:56:13;;;;;;;48.60;28.10;;;6.60;99.90;;;;;;5082703;28;20196;-68
2022/11/07 19:58:41;;;;;;;47.40;26.93;;;6.60;99.90;;;;;;5081803;28;20201;-70
2022/11/07 20:01:13;;;;;;;46.33;27.43;;;6.50;99.90;;;;;;5081519;28;20529;-70
2022/11/07 20:03:43;;;;;;;46.47;26.93;;;6.50;99.90;;;;;;5081957;28;20589;-66
2022/11/07 20:06:11;;;;;;;44.17;26.47;;;6.40;99.90;;;;;;5086441;28;20676;-67
2022/11/07 20:08:38;;;;;;;44.70;26.27;;;6.50;99.90;;;;;;5081766;28;20204;-67
2022/11/07 20:11:07;;;;;;;47.83;27.87;;;6.50;99.90;;;;;;5082579;28;20221;-72
2022/11/07 20:13:34;;;;;;;48.57;28.30;;;6.40;99.90;;;;;;5082876;28;20670;-71
2022/11/07 20:16:01;;;;;;;50.60;29.23;;;6.40;99.90;;;;;;5083728;28;20212;-68
2022/11/07 20:18:27;;;;;;;49.53;28.80;;;6.40;99.90;;;;;;5081319;28;20239;-69
2022/11/07 20:21:01;;;;;;;49.60;27.17;;;6.40;99.90;;;;;;5087467;28;21213;-69
2022/11/07 20:23:27;;;;;;;48.10;26.90;;;6.40;99.90;;;;;;5091330;28;20196;-69
2022/11/07 20:25:54;;;;;;;48.93;27.80;;;6.40;99.90;;;;;;5088996;28;20200;-69
2022/11/07 20:28:22;;;;;;;50.37;28.03;;;6.30;99.90;;;;;;5081566;28;20215;-67
2022/11/07 20:30:53;;;;;;;51.40;28.33;;;6.30;99.90;;;;;;5073672;28;20228;-68
2022/11/07 20:33:20;;;;;;;53.57;29.20;;;6.30;99.90;;;;;;5072540;28;20257;-68
2022/11/07 20:35:56;;;;;;;44.73;27.27;;;6.30;99.90;;;;;;5069948;28;21124;-69
2022/11/07 20:38:22;;;;;;;48.33;27.63;;;6.30;99.90;;;;;;5074750;28;20202;-69
2022/11/07 20:40:49;;;;;;;48.33;27.53;;;6.30;99.90;;;;;;5073231;28;20204;-70
2022/11/07 20:43:16;;;;;;;50.33;28.47;;;6.30;99.90;;;;;;5069005;28;20671;-68
2022/11/07 20:45:44;;;;;;;47.53;26.93;;;6.30;99.90;;;;;;5085860;28;20226;-69
2022/11/07 20:48:11;;;;;;;48.00;26.87;;;6.30;99.90;;;;;;5092010;28;20200;-70
2022/11/07 20:50:37;;;;;;;47.63;27.60;;;6.30;99.90;;;;;;5093124;28;20228;-71
2022/11/07 20:53:04;;;;;;;48.37;28.70;;;6.20;99.90;;;;;;5089195;28;20598;-70
2022/11/07 20:55:31;;;;;;;43.17;25.87;;;6.20;99.90;;;;;;5089260;28;21099;-68
2022/11/07 20:57:58;;;;;;;45.97;26.67;;;6.20;99.90;;;;;;5090148;28;20572;-71
2022/11/07 21:00:25;;;;;;;49.43;27.43;;;6.10;99.90;;;;;;5089055;28;20646;-71
2022/11/07 21:02:53;;;;;;;49.07;29.80;;;6.10;99.90;;;;;;5087000;28;20235;-71
2022/11/07 21:05:20;;;;;;;48.50;27.73;;;6.10;99.90;;;;;;5077451;28;20583;-70
2022/11/07 21:07:48;;;;;;;45.70;27.87;;;6.00;99.90;;;;;;5072687;28;20654;-70
2022/11/07 21:10:15;;;;;;;47.03;26.83;;;6.00;99.90;;;;;;5071931;28;20260;-67
2022/11/07 21:12:42;;;;;;;46.63;26.93;;;6.00;99.90;;;;;;5071870;28;20209;-68
2022/11/07 21:15:10;;;;;;;45.47;27.17;;;6.00;99.90;;;;;;5084765;28;20201;-70
2022/11/07 21:17:37;;;;;;;41.73;25.50;;;6.00;99.90;;;;;;5091877;28;20283;-67
2022/11/07 21:20:09;;;;;;;46.47;27.20;;;6.10;99.90;;;;;;5089708;28;20565;-68
2022/11/07 21:22:35;;;;;;;46.13;27.37;;;6.10;99.90;;;;;;5087453;28;20429;-66
2022/11/07 21:25:03;;;;;;;48.50;28.43;;;6.10;99.90;;;;;;5090005;28;20287;-67
2022/11/07 21:27:35;;;;;;;46.67;27.63;;;6.10;99.90;;;;;;5092346;28;20196;-67
2022/11/07 21:30:03;;;;;;;46.20;26.40;;;6.00;99.90;;;;;;5090652;28;20272;-68
2022/11/07 21:32:30;;;;;;;43.70;26.07;;;6.00;99.90;;;;;;5090433;28;20691;-67
2022/11/07 21:34:57;;;;;;;46.23;26.90;;;6.00;99.90;;;;;;5085551;28;20292;-69
2022/11/07 21:37:25;;;;;;;45.77;26.27;;;6.00;99.90;;;;;;5085554;28;20197;-67
2022/11/07 21:39:51;;;;;;;45.03;26.43;;;6.00;99.90;;;;;;5081452;28;20636;-68
2022/11/07 21:42:18;;;;;;;49.57;28.30;;;6.00;99.90;;;;;;5083582;28;20563;-68
2022/11/07 21:44:45;;;;;;;48.50;28.27;;;6.00;99.90;;;;;;5085311;28;20196;-65
2022/11/07 21:47:12;;;;;;;44.67;26.77;;;6.00;99.90;;;;;;5080732;28;20209;-69
2022/11/07 21:49:39;;;;;;;48.47;27.30;;;6.00;99.90;;;;;;5078516;28;20202;-67
2022/11/07 21:52:06;;;;;;;49.30;27.93;;;6.00;99.90;;;;;;5079830;28;20216;-70
2022/11/07 21:54:34;;;;;;;50.70;28.47;;;6.00;99.90;;;;;;5079930;28;20214;-67
2022/11/07 21:57:01;;;;;;;51.60;27.90;;;6.00;99.90;;;;;;5081654;28;20223;-66
2022/11/07 21:59:27;;;;;;;51.23;29.53;;;5.90;99.90;;;;;;5080058;28;20205;-67
2022/11/07 22:01:55;;;;;;;52.90;28.00;;;5.90;99.90;;;;;;5083954;28;20196;-67
2022/11/07 22:04:21;;;;;;;47.27;26.43;;;5.80;99.90;;;;;;5082884;28;20600;-67
2022/11/07 22:06:50;;;;;;;47.03;26.80;;;5.80;99.90;;;;;;5080693;28;20199;-68
2022/11/07 22:09:19;;;;;;;48.27;28.17;;;5.90;99.90;;;;;;5084601;28;20277;-67
2022/11/07 22:11:47;;;;;;;47.17;26.93;;;5.80;99.90;;;;;;5090091;28;20224;-69
2022/11/07 22:14:15;;;;;;;47.00;27.50;;;5.80;99.90;;;;;;5088197;28;20607;-68
2022/11/07 22:16:42;;;;;;;49.63;28.57;;;5.70;99.90;;;;;;5080809;28;20197;-68